sensor_id;sensor_type;location;lat;lon;timestamp;P1;durP1;ratioP1;P2;durP2;ratioP2
41861;SDS011;27537;57.134;-2.136;2023-03-21T00:00:41;15.82;;;6.30;;
41861;SDS011;27537;57.134;-2.136;2023-03-21T00:03:08;18.13;;;6.40;;
41861;SDS011;27537;57.134;-2.136;2023-03-21T00:05:39;15.82;;;6.80;;
41861;SDS011;27537;57.134;-2.136;2023-03-21T00:08:07;18.10;;;7.43;;
41861;SDS011;27537;57.134;-2.136;2023-03-21T00:10:34;15.80;;;6.38;;
41861;SDS011;27537;57.134;-2.136;2023-03-21T00:13:12;12.13;;;5.40;;
41861;SDS011;27537;57.134;-2.136;2023-03-21T00:15:41;11.77;;;4.50;;
41861;SDS011;27537;57.134;-2.136;2023-03-21T00:18:40;10.57;;;4.20;;
41861;SDS011;27537;57.134;-2.136;2023-03-21T00:21:09;13.63;;;5.72;;
41861;SDS011;27537;57.134;-2.136;2023-03-21T00:23:57;14.38;;;5.53;;
41861;SDS011;27537;57.134;-2.136;2023-03-21T00:26:26;13.48;;;5.32;;
41861;SDS011;27537;57.134;-2.136;2023-03-21T00:28:53;19.23;;;8.80;;
41861;SDS011;27537;57.134;-2.136;2023-03-21T00:31:20;15.00;;;5.55;;
41861;SDS011;27537;57.134;-2.136;2023-03-21T00:33:46;12.63;;;4.63;;
41861;SDS011;27537;57.134;-2.136;2023-03-21T00:36:13;12.60;;;5.22;;
41861;SDS011;27537;57.134;-2.136;2023-03-21T00:38:41;15.75;;;7.10;;
41861;SDS011;27537;57.134;-2.136;2023-03-21T00:41:09;17.30;;;8.30;;
41861;SDS011;27537;57.134;-2.136;2023-03-21T00:43:51;17.13;;;7.68;;
41861;SDS011;27537;57.134;-2.136;2023-03-21T00:46:21;21.60;;;7.05;;
41861;SDS011;27537;57.134;-2.136;2023-03-21T00:48:50;22.40;;;9.35;;
41861;SDS011;27537;57.134;-2.136;2023-03-21T00:51:18;20.58;;;7.03;;
41861;SDS011;27537;57.134;-2.136;2023-03-21T00:53:55;15.70;;;6.53;;
41861;SDS011;27537;57.134;-2.136;2023-03-21T00:56:22;14.88;;;6.47;;
41861;SDS011;27537;57.134;-2.136;2023-03-21T00:58:49;24.67;;;9.80;;
41861;SDS011;27537;57.134;-2.136;2023-03-21T01:01:16;18.10;;;8.15;;
41861;SDS011;27537;57.134;-2.136;2023-03-21T01:03:44;15.70;;;7.25;;
41861;SDS011;27537;57.134;-2.136;2023-03-21T01:06:13;18.20;;;7.50;;
41861;SDS011;27537;57.134;-2.136;2023-03-21T01:08:45;14.00;;;6.05;;
41861;SDS011;27537;57.134;-2.136;2023-03-21T01:11:19;16.48;;;5.93;;
41861;SDS011;27537;57.134;-2.136;2023-03-21T01:13:48;24.33;;;9.20;;
41861;SDS011;27537;57.134;-2.136;2023-03-21T01:16:24;14.75;;;5.93;;
41861;SDS011;27537;57.134;-2.136;2023-03-21T01:18:51;14.25;;;6.22;;
41861;SDS011;27537;57.134;-2.136;2023-03-21T01:21:18;17.67;;;8.38;;
41861;SDS011;27537;57.134;-2.136;2023-03-21T01:23:45;14.25;;;7.15;;
41861;SDS011;27537;57.134;-2.136;2023-03-21T01:26:12;19.55;;;9.45;;
41861;SDS011;27537;57.134;-2.136;2023-03-21T01:28:39;16.30;;;6.68;;
41861;SDS011;27537;57.134;-2.136;2023-03-21T01:31:07;17.95;;;8.50;;
41861;SDS011;27537;57.134;-2.136;2023-03-21T01:33:36;15.30;;;6.95;;
41861;SDS011;27537;57.134;-2.136;2023-03-21T01:36:04;11.32;;;5.38;;
41861;SDS011;27537;57.134;-2.136;2023-03-21T01:38:39;11.63;;;4.88;;
41861;SDS011;27537;57.134;-2.136;2023-03-21T01:41:07;14.02;;;5.35;;
41861;SDS011;27537;57.134;-2.136;2023-03-21T01:44:17;16.13;;;8.32;;
41861;SDS011;27537;57.134;-2.136;2023-03-21T01:46:46;11.80;;;4.82;;
41861;SDS011;27537;57.134;-2.136;2023-03-21T01:49:35;13.80;;;5.28;;
41861;SDS011;27537;57.134;-2.136;2023-03-21T01:52:08;10.10;;;4.43;;
41861;SDS011;27537;57.134;-2.136;2023-03-21T01:54:49;13.43;;;5.82;;
41861;SDS011;27537;57.134;-2.136;2023-03-21T01:57:20;13.27;;;4.97;;
41861;SDS011;27537;57.134;-2.136;2023-03-21T02:00:07;11.63;;;4.85;;
41861;SDS011;27537;57.134;-2.136;2023-03-21T02:02:38;14.38;;;6.05;;
41861;SDS011;27537;57.134;-2.136;2023-03-21T02:08:16;13.63;;;6.13;;
41861;SDS011;27537;57.134;-2.136;2023-03-21T02:10:44;17.10;;;7.93;;
41861;SDS011;27537;57.134;-2.136;2023-03-21T02:13:16;16.33;;;7.73;;
41861;SDS011;27537;57.134;-2.136;2023-03-21T02:15:45;17.52;;;8.27;;
41861;SDS011;27537;57.134;-2.136;2023-03-21T02:26:50;17.88;;;8.43;;
41861;SDS011;27537;57.134;-2.136;2023-03-21T02:37:31;17.45;;;7.30;;
41861;SDS011;27537;57.134;-2.136;2023-03-21T02:43:11;16.23;;;5.90;;
41861;SDS011;27537;57.134;-2.136;2023-03-21T02:48:44;17.40;;;6.28;;
41861;SDS011;27537;57.134;-2.136;2023-03-21T02:51:32;11.82;;;4.53;;
41861;SDS011;27537;57.134;-2.136;2023-03-21T02:54:02;12.98;;;4.28;;
41861;SDS011;27537;57.134;-2.136;2023-03-21T02:56:54;11.00;;;4.32;;
41861;SDS011;27537;57.134;-2.136;2023-03-21T02:59:23;11.98;;;4.40;;
41861;SDS011;27537;57.134;-2.136;2023-03-21T03:01:53;13.55;;;5.78;;
41861;SDS011;27537;57.134;-2.136;2023-03-21T03:04:22;9.98;;;4.15;;
41861;SDS011;27537;57.134;-2.136;2023-03-21T03:12:34;12.98;;;3.90;;
41861;SDS011;27537;57.134;-2.136;2023-03-21T03:15:38;9.65;;;3.58;;
41861;SDS011;27537;57.134;-2.136;2023-03-21T03:23:40;11.05;;;2.80;;
41861;SDS011;27537;57.134;-2.136;2023-03-21T03:26:33;11.40;;;3.67;;
41861;SDS011;27537;57.134;-2.136;2023-03-21T03:29:04;8.70;;;2.85;;
41861;SDS011;27537;57.134;-2.136;2023-03-21T03:31:41;8.82;;;2.85;;
41861;SDS011;27537;57.134;-2.136;2023-03-21T03:34:12;10.38;;;3.05;;
41861;SDS011;27537;57.134;-2.136;2023-03-21T03:36:46;10.35;;;3.33;;
41861;SDS011;27537;57.134;-2.136;2023-03-21T03:39:21;8.10;;;2.85;;
41861;SDS011;27537;57.134;-2.136;2023-03-21T03:42:00;12.23;;;2.42;;
41861;SDS011;27537;57.134;-2.136;2023-03-21T03:44:51;9.65;;;2.28;;
41861;SDS011;27537;57.134;-2.136;2023-03-21T03:47:37;11.73;;;2.53;;
41861;SDS011;27537;57.134;-2.136;2023-03-21T03:55:44;8.15;;;2.25;;
41861;SDS011;27537;57.134;-2.136;2023-03-21T03:58:11;5.50;;;1.80;;
41861;SDS011;27537;57.134;-2.136;2023-03-21T04:00:49;5.15;;;2.08;;
41861;SDS011;27537;57.134;-2.136;2023-03-21T04:03:17;10.75;;;3.22;;
41861;SDS011;27537;57.134;-2.136;2023-03-21T04:05:44;7.75;;;2.85;;
41861;SDS011;27537;57.134;-2.136;2023-03-21T04:08:14;7.00;;;2.58;;
41861;SDS011;27537;57.134;-2.136;2023-03-21T04:10:42;12.20;;;3.53;;
41861;SDS011;27537;57.134;-2.136;2023-03-21T04:13:09;7.35;;;2.83;;
41861;SDS011;27537;57.134;-2.136;2023-03-21T04:15:36;9.63;;;3.25;;
41861;SDS011;27537;57.134;-2.136;2023-03-21T04:18:03;11.70;;;4.38;;
41861;SDS011;27537;57.134;-2.136;2023-03-21T04:20:30;10.90;;;3.75;;
41861;SDS011;27537;57.134;-2.136;2023-03-21T04:23:03;11.50;;;3.42;;
41861;SDS011;27537;57.134;-2.136;2023-03-21T04:25:34;9.07;;;3.22;;
41861;SDS011;27537;57.134;-2.136;2023-03-21T04:28:05;9.75;;;3.53;;
41861;SDS011;27537;57.134;-2.136;2023-03-21T04:30:32;10.77;;;3.80;;
41861;SDS011;27537;57.134;-2.136;2023-03-21T04:32:59;13.10;;;4.95;;
41861;SDS011;27537;57.134;-2.136;2023-03-21T04:35:26;11.45;;;3.47;;
41861;SDS011;27537;57.134;-2.136;2023-03-21T04:37:54;13.82;;;4.63;;
41861;SDS011;27537;57.134;-2.136;2023-03-21T04:40:21;16.38;;;5.45;;
41861;SDS011;27537;57.134;-2.136;2023-03-21T04:42:50;11.20;;;4.10;;
41861;SDS011;27537;57.134;-2.136;2023-03-21T04:45:16;12.85;;;5.40;;
41861;SDS011;27537;57.134;-2.136;2023-03-21T04:47:43;14.80;;;4.38;;
41861;SDS011;27537;57.134;-2.136;2023-03-21T04:50:10;10.02;;;4.10;;
41861;SDS011;27537;57.134;-2.136;2023-03-21T04:52:39;10.95;;;4.32;;
41861;SDS011;27537;57.134;-2.136;2023-03-21T04:55:06;13.88;;;6.65;;
41861;SDS011;27537;57.134;-2.136;2023-03-21T04:57:36;11.77;;;4.55;;
41861;SDS011;27537;57.134;-2.136;2023-03-21T05:00:04;14.20;;;6.25;;
41861;SDS011;27537;57.134;-2.136;2023-03-21T05:02:36;13.00;;;5.40;;
41861;SDS011;27537;57.134;-2.136;2023-03-21T05:05:04;13.30;;;5.38;;
41861;SDS011;27537;57.134;-2.136;2023-03-21T05:07:32;14.05;;;4.90;;
41861;SDS011;27537;57.134;-2.136;2023-03-21T05:09:59;16.88;;;6.38;;
41861;SDS011;27537;57.134;-2.136;2023-03-21T05:12:27;14.77;;;5.28;;
41861;SDS011;27537;57.134;-2.136;2023-03-21T05:14:54;15.68;;;5.40;;
41861;SDS011;27537;57.134;-2.136;2023-03-21T05:17:21;12.65;;;4.97;;
41861;SDS011;27537;57.134;-2.136;2023-03-21T05:19:53;14.85;;;5.47;;
41861;SDS011;27537;57.134;-2.136;2023-03-21T05:22:22;15.10;;;6.30;;
41861;SDS011;27537;57.134;-2.136;2023-03-21T05:24:52;13.88;;;6.03;;
41861;SDS011;27537;57.134;-2.136;2023-03-21T05:27:21;10.90;;;4.55;;
41861;SDS011;27537;57.134;-2.136;2023-03-21T05:30:02;12.30;;;5.53;;
41861;SDS011;27537;57.134;-2.136;2023-03-21T05:32:37;12.07;;;5.40;;
41861;SDS011;27537;57.134;-2.136;2023-03-21T05:35:04;13.68;;;5.88;;
41861;SDS011;27537;57.134;-2.136;2023-03-21T05:37:31;10.38;;;4.63;;
41861;SDS011;27537;57.134;-2.136;2023-03-21T05:39:58;12.23;;;4.30;;
41861;SDS011;27537;57.134;-2.136;2023-03-21T05:42:25;11.05;;;5.90;;
41861;SDS011;27537;57.134;-2.136;2023-03-21T05:44:52;12.13;;;4.25;;
41861;SDS011;27537;57.134;-2.136;2023-03-21T05:47:18;10.98;;;4.38;;
41861;SDS011;27537;57.134;-2.136;2023-03-21T05:49:45;14.82;;;5.22;;
41861;SDS011;27537;57.134;-2.136;2023-03-21T05:52:12;13.98;;;5.53;;
41861;SDS011;27537;57.134;-2.136;2023-03-21T05:54:39;17.00;;;6.43;;
41861;SDS011;27537;57.134;-2.136;2023-03-21T05:57:06;14.43;;;5.90;;
41861;SDS011;27537;57.134;-2.136;2023-03-21T05:59:33;13.73;;;6.53;;
41861;SDS011;27537;57.134;-2.136;2023-03-21T06:02:00;13.93;;;5.70;;
41861;SDS011;27537;57.134;-2.136;2023-03-21T06:04:27;10.75;;;4.18;;
41861;SDS011;27537;57.134;-2.136;2023-03-21T06:06:56;13.93;;;4.95;;
41861;SDS011;27537;57.134;-2.136;2023-03-21T06:09:23;13.90;;;6.13;;
41861;SDS011;27537;57.134;-2.136;2023-03-21T06:11:51;19.55;;;7.07;;
41861;SDS011;27537;57.134;-2.136;2023-03-21T06:14:21;13.60;;;6.22;;
41861;SDS011;27537;57.134;-2.136;2023-03-21T06:16:49;15.80;;;5.70;;
41861;SDS011;27537;57.134;-2.136;2023-03-21T06:19:16;13.13;;;5.30;;
41861;SDS011;27537;57.134;-2.136;2023-03-21T06:21:43;13.45;;;5.93;;
41861;SDS011;27537;57.134;-2.136;2023-03-21T06:24:09;13.73;;;5.10;;
41861;SDS011;27537;57.134;-2.136;2023-03-21T06:26:36;12.75;;;4.78;;
41861;SDS011;27537;57.134;-2.136;2023-03-21T06:29:03;12.13;;;4.32;;
41861;SDS011;27537;57.134;-2.136;2023-03-21T06:31:30;15.48;;;5.38;;
41861;SDS011;27537;57.134;-2.136;2023-03-21T06:33:57;12.18;;;4.20;;
41861;SDS011;27537;57.134;-2.136;2023-03-21T06:36:24;12.45;;;4.57;;
41861;SDS011;27537;57.134;-2.136;2023-03-21T06:38:51;10.88;;;3.78;;
41861;SDS011;27537;57.134;-2.136;2023-03-21T06:41:17;12.55;;;4.55;;
41861;SDS011;27537;57.134;-2.136;2023-03-21T06:43:44;14.98;;;3.13;;
41861;SDS011;27537;57.134;-2.136;2023-03-21T06:46:11;10.10;;;3.17;;
41861;SDS011;27537;57.134;-2.136;2023-03-21T06:48:38;9.95;;;3.40;;
41861;SDS011;27537;57.134;-2.136;2023-03-21T06:51:10;13.80;;;3.92;;
41861;SDS011;27537;57.134;-2.136;2023-03-21T06:53:38;10.70;;;3.50;;
41861;SDS011;27537;57.134;-2.136;2023-03-21T06:56:05;9.38;;;3.30;;
41861;SDS011;27537;57.134;-2.136;2023-03-21T06:58:32;13.20;;;2.83;;
41861;SDS011;27537;57.134;-2.136;2023-03-21T07:00:59;7.60;;;2.53;;
41861;SDS011;27537;57.134;-2.136;2023-03-21T07:03:27;9.77;;;3.15;;
41861;SDS011;27537;57.134;-2.136;2023-03-21T07:05:54;9.40;;;2.70;;
41861;SDS011;27537;57.134;-2.136;2023-03-21T07:08:21;11.02;;;3.22;;
41861;SDS011;27537;57.134;-2.136;2023-03-21T07:10:48;6.80;;;2.70;;
41861;SDS011;27537;57.134;-2.136;2023-03-21T07:13:15;13.43;;;3.30;;
41861;SDS011;27537;57.134;-2.136;2023-03-21T07:15:41;9.43;;;4.03;;
41861;SDS011;27537;57.134;-2.136;2023-03-21T07:18:08;14.55;;;4.15;;
41861;SDS011;27537;57.134;-2.136;2023-03-21T07:20:35;10.98;;;3.20;;
41861;SDS011;27537;57.134;-2.136;2023-03-21T07:23:03;7.60;;;2.80;;
41861;SDS011;27537;57.134;-2.136;2023-03-21T07:25:31;9.20;;;2.80;;
41861;SDS011;27537;57.134;-2.136;2023-03-21T07:27:58;12.10;;;2.50;;
41861;SDS011;27537;57.134;-2.136;2023-03-21T07:30:24;9.68;;;3.50;;
41861;SDS011;27537;57.134;-2.136;2023-03-21T07:32:51;9.02;;;2.60;;
41861;SDS011;27537;57.134;-2.136;2023-03-21T07:35:18;7.25;;;2.28;;
41861;SDS011;27537;57.134;-2.136;2023-03-21T07:37:45;11.15;;;3.08;;
41861;SDS011;27537;57.134;-2.136;2023-03-21T07:40:12;7.97;;;2.42;;
41861;SDS011;27537;57.134;-2.136;2023-03-21T07:42:39;9.07;;;2.53;;
41861;SDS011;27537;57.134;-2.136;2023-03-21T07:45:07;7.00;;;2.50;;
41861;SDS011;27537;57.134;-2.136;2023-03-21T07:47:35;8.13;;;2.50;;
41861;SDS011;27537;57.134;-2.136;2023-03-21T07:50:02;8.45;;;2.13;;
41861;SDS011;27537;57.134;-2.136;2023-03-21T07:52:30;10.50;;;3.13;;
41861;SDS011;27537;57.134;-2.136;2023-03-21T07:54:57;10.45;;;2.40;;
41861;SDS011;27537;57.134;-2.136;2023-03-21T07:57:24;7.20;;;2.78;;
41861;SDS011;27537;57.134;-2.136;2023-03-21T07:59:51;9.02;;;2.58;;
41861;SDS011;27537;57.134;-2.136;2023-03-21T08:02:18;8.40;;;2.28;;
41861;SDS011;27537;57.134;-2.136;2023-03-21T08:04:44;8.30;;;2.40;;
41861;SDS011;27537;57.134;-2.136;2023-03-21T08:07:12;5.18;;;1.90;;
41861;SDS011;27537;57.134;-2.136;2023-03-21T08:09:39;4.68;;;1.70;;
41861;SDS011;27537;57.134;-2.136;2023-03-21T08:12:06;5.95;;;2.25;;
41861;SDS011;27537;57.134;-2.136;2023-03-21T08:14:35;6.00;;;2.00;;
41861;SDS011;27537;57.134;-2.136;2023-03-21T08:17:03;5.53;;;1.70;;
41861;SDS011;27537;57.134;-2.136;2023-03-21T08:19:31;10.90;;;2.25;;
41861;SDS011;27537;57.134;-2.136;2023-03-21T08:21:57;8.43;;;2.50;;
41861;SDS011;27537;57.134;-2.136;2023-03-21T08:24:25;7.32;;;2.20;;
41861;SDS011;27537;57.134;-2.136;2023-03-21T08:26:53;7.03;;;2.17;;
41861;SDS011;27537;57.134;-2.136;2023-03-21T08:29:20;20.80;;;18.83;;
41861;SDS011;27537;57.134;-2.136;2023-03-21T08:31:47;9.15;;;4.45;;
41861;SDS011;27537;57.134;-2.136;2023-03-21T08:34:14;7.57;;;2.80;;
41861;SDS011;27537;57.134;-2.136;2023-03-21T08:36:40;5.38;;;2.40;;
41861;SDS011;27537;57.134;-2.136;2023-03-21T08:39:07;6.07;;;1.75;;
41861;SDS011;27537;57.134;-2.136;2023-03-21T08:41:34;8.80;;;1.60;;
41861;SDS011;27537;57.134;-2.136;2023-03-21T08:44:03;3.25;;;1.13;;
41861;SDS011;27537;57.134;-2.136;2023-03-21T08:46:31;6.10;;;1.30;;
41861;SDS011;27537;57.134;-2.136;2023-03-21T08:48:58;3.35;;;1.20;;
41861;SDS011;27537;57.134;-2.136;2023-03-21T08:51:25;3.00;;;1.20;;
41861;SDS011;27537;57.134;-2.136;2023-03-21T08:53:52;3.72;;;1.20;;
41861;SDS011;27537;57.134;-2.136;2023-03-21T08:56:19;3.88;;;1.27;;
41861;SDS011;27537;57.134;-2.136;2023-03-21T08:58:45;3.90;;;1.30;;
41861;SDS011;27537;57.134;-2.136;2023-03-21T09:01:12;5.47;;;1.77;;
41861;SDS011;27537;57.134;-2.136;2023-03-21T09:03:41;4.82;;;1.20;;
41861;SDS011;27537;57.134;-2.136;2023-03-21T09:06:09;3.58;;;1.40;;
41861;SDS011;27537;57.134;-2.136;2023-03-21T09:08:39;7.03;;;1.63;;
41861;SDS011;27537;57.134;-2.136;2023-03-21T09:11:07;5.85;;;1.40;;
41861;SDS011;27537;57.134;-2.136;2023-03-21T09:13:35;5.38;;;1.60;;
41861;SDS011;27537;57.134;-2.136;2023-03-21T09:16:02;3.83;;;1.00;;
41861;SDS011;27537;57.134;-2.136;2023-03-21T09:18:30;3.90;;;1.30;;
41861;SDS011;27537;57.134;-2.136;2023-03-21T09:21:14;6.10;;;1.40;;
41861;SDS011;27537;57.134;-2.136;2023-03-21T09:23:44;6.53;;;1.35;;
41861;SDS011;27537;57.134;-2.136;2023-03-21T09:26:12;4.22;;;1.38;;
41861;SDS011;27537;57.134;-2.136;2023-03-21T09:28:39;3.35;;;1.00;;
41861;SDS011;27537;57.134;-2.136;2023-03-21T09:31:06;4.97;;;1.48;;
41861;SDS011;27537;57.134;-2.136;2023-03-21T09:33:38;8.35;;;3.33;;
41861;SDS011;27537;57.134;-2.136;2023-03-21T09:36:08;6.28;;;1.60;;
41861;SDS011;27537;57.134;-2.136;2023-03-21T09:38:40;3.75;;;1.38;;
41861;SDS011;27537;57.134;-2.136;2023-03-21T09:41:14;8.10;;;2.80;;
41861;SDS011;27537;57.134;-2.136;2023-03-21T09:49:24;1.77;;;1.02;;
41861;SDS011;27537;57.134;-2.136;2023-03-21T09:51:58;3.80;;;1.48;;
41861;SDS011;27537;57.134;-2.136;2023-03-21T09:54:29;1.48;;;0.90;;
41861;SDS011;27537;57.134;-2.136;2023-03-21T09:57:00;3.53;;;1.40;;
41861;SDS011;27537;57.134;-2.136;2023-03-21T09:59:50;4.47;;;1.15;;
41861;SDS011;27537;57.134;-2.136;2023-03-21T10:02:39;2.08;;;1.00;;
41861;SDS011;27537;57.134;-2.136;2023-03-21T10:05:17;3.38;;;1.20;;
41861;SDS011;27537;57.134;-2.136;2023-03-21T10:08:02;4.38;;;1.50;;
41861;SDS011;27537;57.134;-2.136;2023-03-21T10:10:38;2.97;;;1.30;;
41861;SDS011;27537;57.134;-2.136;2023-03-21T10:13:31;2.63;;;1.25;;
41861;SDS011;27537;57.134;-2.136;2023-03-21T10:16:01;4.95;;;1.63;;
41861;SDS011;27537;57.134;-2.136;2023-03-21T10:18:39;6.30;;;1.65;;
41861;SDS011;27537;57.134;-2.136;2023-03-21T10:21:10;8.68;;;2.20;;
41861;SDS011;27537;57.134;-2.136;2023-03-21T10:26:29;2.75;;;1.15;;
41861;SDS011;27537;57.134;-2.136;2023-03-21T10:29:00;3.13;;;1.20;;
41861;SDS011;27537;57.134;-2.136;2023-03-21T10:31:28;6.10;;;1.65;;
41861;SDS011;27537;57.134;-2.136;2023-03-21T10:33:57;3.72;;;1.65;;
41861;SDS011;27537;57.134;-2.136;2023-03-21T10:36:28;3.50;;;1.20;;
41861;SDS011;27537;57.134;-2.136;2023-03-21T10:38:59;2.75;;;1.20;;
41861;SDS011;27537;57.134;-2.136;2023-03-21T10:41:30;3.77;;;1.60;;
41861;SDS011;27537;57.134;-2.136;2023-03-21T10:46:37;3.65;;;1.60;;
41861;SDS011;27537;57.134;-2.136;2023-03-21T10:49:06;11.30;;;5.72;;
41861;SDS011;27537;57.134;-2.136;2023-03-21T10:51:34;8.02;;;3.10;;
41861;SDS011;27537;57.134;-2.136;2023-03-21T10:54:07;2.25;;;1.10;;
41861;SDS011;27537;57.134;-2.136;2023-03-21T10:56:43;2.95;;;1.40;;
41861;SDS011;27537;57.134;-2.136;2023-03-21T10:59:19;4.78;;;1.38;;
41861;SDS011;27537;57.134;-2.136;2023-03-21T11:01:49;2.75;;;1.15;;
41861;SDS011;27537;57.134;-2.136;2023-03-21T11:04:24;2.67;;;0.98;;
41861;SDS011;27537;57.134;-2.136;2023-03-21T11:06:53;5.43;;;1.50;;
41861;SDS011;27537;57.134;-2.136;2023-03-21T11:09:23;5.25;;;1.45;;
41861;SDS011;27537;57.134;-2.136;2023-03-21T11:12:03;7.68;;;2.85;;
41861;SDS011;27537;57.134;-2.136;2023-03-21T11:14:37;7.37;;;2.50;;
41861;SDS011;27537;57.134;-2.136;2023-03-21T11:17:17;5.38;;;1.88;;
41861;SDS011;27537;57.134;-2.136;2023-03-21T11:19:50;5.30;;;1.63;;
41861;SDS011;27537;57.134;-2.136;2023-03-21T11:22:25;6.60;;;1.80;;
41861;SDS011;27537;57.134;-2.136;2023-03-21T11:24:57;7.60;;;1.60;;
41861;SDS011;27537;57.134;-2.136;2023-03-21T11:27:27;6.88;;;1.70;;
41861;SDS011;27537;57.134;-2.136;2023-03-21T11:29:56;8.07;;;1.73;;
41861;SDS011;27537;57.134;-2.136;2023-03-21T11:32:29;4.22;;;1.50;;
41861;SDS011;27537;57.134;-2.136;2023-03-21T11:35:12;10.82;;;2.03;;
41861;SDS011;27537;57.134;-2.136;2023-03-21T11:37:45;8.13;;;1.73;;
41861;SDS011;27537;57.134;-2.136;2023-03-21T11:42:49;4.70;;;1.20;;
41861;SDS011;27537;57.134;-2.136;2023-03-21T11:45:19;9.02;;;1.20;;
41861;SDS011;27537;57.134;-2.136;2023-03-21T11:47:49;6.43;;;1.40;;
41861;SDS011;27537;57.134;-2.136;2023-03-21T11:50:40;5.35;;;1.10;;
41861;SDS011;27537;57.134;-2.136;2023-03-21T11:55:46;6.32;;;1.20;;
41861;SDS011;27537;57.134;-2.136;2023-03-21T12:06:54;4.25;;;1.13;;
41861;SDS011;27537;57.134;-2.136;2023-03-21T12:20:28;7.18;;;1.70;;
41861;SDS011;27537;57.134;-2.136;2023-03-21T12:28:46;3.28;;;1.08;;
41861;SDS011;27537;57.134;-2.136;2023-03-21T12:39:38;2.97;;;1.00;;
41861;SDS011;27537;57.134;-2.136;2023-03-21T12:42:08;4.77;;;1.37;;
41861;SDS011;27537;57.134;-2.136;2023-03-21T12:44:38;4.20;;;1.20;;
41861;SDS011;27537;57.134;-2.136;2023-03-21T12:47:12;3.30;;;1.00;;
41861;SDS011;27537;57.134;-2.136;2023-03-21T12:49:47;3.25;;;1.05;;
41861;SDS011;27537;57.134;-2.136;2023-03-21T12:52:22;1.52;;;0.82;;
41861;SDS011;27537;57.134;-2.136;2023-03-21T12:54:54;4.28;;;1.20;;
41861;SDS011;27537;57.134;-2.136;2023-03-21T12:58:28;4.05;;;1.00;;
41861;SDS011;27537;57.134;-2.136;2023-03-21T13:05:54;5.43;;;1.10;;
41861;SDS011;27537;57.134;-2.136;2023-03-21T13:11:13;7.18;;;1.60;;
41861;SDS011;27537;57.134;-2.136;2023-03-21T13:16:26;9.40;;;1.33;;
41861;SDS011;27537;57.134;-2.136;2023-03-21T13:21:40;10.48;;;2.05;;
41861;SDS011;27537;57.134;-2.136;2023-03-21T13:26:57;4.22;;;1.08;;
41861;SDS011;27537;57.134;-2.136;2023-03-21T13:29:29;6.25;;;1.50;;
41861;SDS011;27537;57.134;-2.136;2023-03-21T13:32:15;5.47;;;1.17;;
41861;SDS011;27537;57.134;-2.136;2023-03-21T13:35:31;5.10;;;1.23;;
41861;SDS011;27537;57.134;-2.136;2023-03-21T13:37:56;10.55;;;1.58;;
41861;SDS011;27537;57.134;-2.136;2023-03-21T13:40:44;5.97;;;1.85;;
41861;SDS011;27537;57.134;-2.136;2023-03-21T13:46:10;6.05;;;1.25;;
41861;SDS011;27537;57.134;-2.136;2023-03-21T13:54:01;6.80;;;1.77;;
41861;SDS011;27537;57.134;-2.136;2023-03-21T13:56:46;6.78;;;1.20;;
41861;SDS011;27537;57.134;-2.136;2023-03-21T14:02:16;5.22;;;1.15;;
41861;SDS011;27537;57.134;-2.136;2023-03-21T14:05:13;9.68;;;1.55;;
41861;SDS011;27537;57.134;-2.136;2023-03-21T14:07:47;9.18;;;1.67;;
41861;SDS011;27537;57.134;-2.136;2023-03-21T14:10:25;10.90;;;1.55;;
41861;SDS011;27537;57.134;-2.136;2023-03-21T14:12:56;7.55;;;1.63;;
41861;SDS011;27537;57.134;-2.136;2023-03-21T14:15:43;6.53;;;1.50;;
41861;SDS011;27537;57.134;-2.136;2023-03-21T14:18:23;7.25;;;1.27;;
41861;SDS011;27537;57.134;-2.136;2023-03-21T14:21:20;5.38;;;1.33;;
41861;SDS011;27537;57.134;-2.136;2023-03-21T14:24:00;6.10;;;1.40;;
41861;SDS011;27537;57.134;-2.136;2023-03-21T14:26:31;8.60;;;1.40;;
41861;SDS011;27537;57.134;-2.136;2023-03-21T14:29:32;8.60;;;1.40;;
41861;SDS011;27537;57.134;-2.136;2023-03-21T14:32:00;9.10;;;1.60;;
41861;SDS011;27537;57.134;-2.136;2023-03-21T14:34:28;9.23;;;1.58;;
41861;SDS011;27537;57.134;-2.136;2023-03-21T14:36:58;8.15;;;1.40;;
41861;SDS011;27537;57.134;-2.136;2023-03-21T14:39:26;6.60;;;1.52;;
41861;SDS011;27537;57.134;-2.136;2023-03-21T14:42:00;4.65;;;1.23;;
41861;SDS011;27537;57.134;-2.136;2023-03-21T14:47:23;6.88;;;1.52;;
41861;SDS011;27537;57.134;-2.136;2023-03-21T14:49:51;6.70;;;1.48;;
41861;SDS011;27537;57.134;-2.136;2023-03-21T14:52:26;7.43;;;1.65;;
41861;SDS011;27537;57.134;-2.136;2023-03-21T14:54:56;10.07;;;1.80;;
41861;SDS011;27537;57.134;-2.136;2023-03-21T14:57:26;8.30;;;1.20;;
41861;SDS011;27537;57.134;-2.136;2023-03-21T14:59:57;7.30;;;1.58;;
41861;SDS011;27537;57.134;-2.136;2023-03-21T15:02:29;9.15;;;1.75;;
41861;SDS011;27537;57.134;-2.136;2023-03-21T15:08:07;9.07;;;1.50;;
41861;SDS011;27537;57.134;-2.136;2023-03-21T15:10:41;5.82;;;1.38;;
41861;SDS011;27537;57.134;-2.136;2023-03-21T15:15:59;5.40;;;1.20;;
41861;SDS011;27537;57.134;-2.136;2023-03-21T15:18:27;3.63;;;1.20;;
41861;SDS011;27537;57.134;-2.136;2023-03-21T15:21:02;10.77;;;1.48;;
41861;SDS011;27537;57.134;-2.136;2023-03-21T15:26:11;8.80;;;1.50;;
41861;SDS011;27537;57.134;-2.136;2023-03-21T15:28:43;7.60;;;1.67;;
41861;SDS011;27537;57.134;-2.136;2023-03-21T15:31:16;7.53;;;1.63;;
41861;SDS011;27537;57.134;-2.136;2023-03-21T15:33:46;6.80;;;1.52;;
41861;SDS011;27537;57.134;-2.136;2023-03-21T15:36:18;6.50;;;1.48;;
41861;SDS011;27537;57.134;-2.136;2023-03-21T15:46:43;1.67;;;0.93;;
41861;SDS011;27537;57.134;-2.136;2023-03-21T15:51:42;5.32;;;1.00;;
41861;SDS011;27537;57.134;-2.136;2023-03-21T15:54:15;5.63;;;1.02;;
41861;SDS011;27537;57.134;-2.136;2023-03-21T15:57:16;4.72;;;1.05;;
41861;SDS011;27537;57.134;-2.136;2023-03-21T15:59:47;4.63;;;1.10;;
41861;SDS011;27537;57.134;-2.136;2023-03-21T16:02:21;6.32;;;1.35;;
41861;SDS011;27537;57.134;-2.136;2023-03-21T16:04:53;4.13;;;1.00;;
41861;SDS011;27537;57.134;-2.136;2023-03-21T16:07:25;8.30;;;1.73;;
41861;SDS011;27537;57.134;-2.136;2023-03-21T16:09:56;6.20;;;1.52;;
41861;SDS011;27537;57.134;-2.136;2023-03-21T16:12:25;7.07;;;1.40;;
41861;SDS011;27537;57.134;-2.136;2023-03-21T16:14:52;6.93;;;1.80;;
41861;SDS011;27537;57.134;-2.136;2023-03-21T16:17:34;6.20;;;1.40;;
41861;SDS011;27537;57.134;-2.136;2023-03-21T16:20:39;6.22;;;1.30;;
41861;SDS011;27537;57.134;-2.136;2023-03-21T16:23:00;6.40;;;1.40;;
41861;SDS011;27537;57.134;-2.136;2023-03-21T16:25:28;10.13;;;1.27;;
41861;SDS011;27537;57.134;-2.136;2023-03-21T16:27:55;5.03;;;1.00;;
41861;SDS011;27537;57.134;-2.136;2023-03-21T16:30:22;3.80;;;1.05;;
41861;SDS011;27537;57.134;-2.136;2023-03-21T16:32:50;4.00;;;1.30;;
41861;SDS011;27537;57.134;-2.136;2023-03-21T16:35:17;8.25;;;1.85;;
41861;SDS011;27537;57.134;-2.136;2023-03-21T16:37:44;5.80;;;1.50;;
41861;SDS011;27537;57.134;-2.136;2023-03-21T16:42:49;9.32;;;1.67;;
41861;SDS011;27537;57.134;-2.136;2023-03-21T16:45:16;7.88;;;1.40;;
41861;SDS011;27537;57.134;-2.136;2023-03-21T16:47:43;8.00;;;1.70;;
41861;SDS011;27537;57.134;-2.136;2023-03-21T16:50:21;5.65;;;1.90;;
41861;SDS011;27537;57.134;-2.136;2023-03-21T16:52:54;5.28;;;1.58;;
41861;SDS011;27537;57.134;-2.136;2023-03-21T16:55:21;6.47;;;1.48;;
41861;SDS011;27537;57.134;-2.136;2023-03-21T16:57:48;9.25;;;1.50;;
41861;SDS011;27537;57.134;-2.136;2023-03-21T17:00:20;7.72;;;1.65;;
41861;SDS011;27537;57.134;-2.136;2023-03-21T17:02:50;8.30;;;1.42;;
41861;SDS011;27537;57.134;-2.136;2023-03-21T17:05:19;7.32;;;1.77;;
41861;SDS011;27537;57.134;-2.136;2023-03-21T17:07:53;9.10;;;2.45;;
41861;SDS011;27537;57.134;-2.136;2023-03-21T17:12:51;10.52;;;2.45;;
41861;SDS011;27537;57.134;-2.136;2023-03-21T17:15:18;7.15;;;1.75;;
41861;SDS011;27537;57.134;-2.136;2023-03-21T17:17:46;6.32;;;1.85;;
41861;SDS011;27537;57.134;-2.136;2023-03-21T17:20:19;7.53;;;1.55;;